Snake Valley, Nevada Weather observations

Data are for 10 minute period ending at time listed.
 Day   Time   Solar   Ave.   Ave.  Ave.  Vector  Max.   Baro.   Total    
  of    of     Rad.   Air    Rel.  Wind   Wind   Wind  Press.  Precip.   
Year   Day            Temp.  Hum.  Speed  Dir.   Gust                    
2014   (PST)  Kw/m2    F      %     mph   deg.    mph    mb.     in.     
-------------------------------------------------------------------------
 241   10:00   0.82   79.8    32    6.9   124     9.2   843.3    0.00 
 241   10:10   0.84   80.9    28    5.6   104     9.1   843.3    0.00 
 241   10:20   0.85   81.4    28    4.8    95    10.2   843.2    0.00 
 241   10:30   0.88   82.5    29    6.0   102     9.6   843.1    0.00 
 241   10:40   0.88   82.8    30    6.5    96    10.8   843.0    0.00 
 241   10:50   0.88   82.9    24    4.8    82    10.2   842.9    0.00 
 241   11:00   0.92   84.6    22    5.8   111    10.1   842.8    0.00 
 241   11:10   0.92   83.8    26    6.8   102    10.4   842.8    0.00 
 241   11:20   0.94   84.5    22    5.5    92    11.5   842.7    0.00 
 241   11:30   0.93   84.9    24    5.0    78    10.9   842.7    0.00 
 241   11:40   0.94   85.8    20    4.6   110     9.4   842.5    0.00 
 241   11:50   0.95   85.6    20    4.9    68     7.9   842.4    0.00 
 241   12:00   0.96   86.1    22    3.5    48     5.3   842.3    0.00 
 241   12:10   0.95   86.9    19    3.5    58     6.1   842.2    0.00 
 241   12:20   0.91   85.9    23    4.5    94     7.1   842.1    0.00 
 241   12:30   0.96   88.0    16    2.2   136     4.1   842.0    0.00 
 241   12:40   0.94   89.0    18    1.9    62     5.2   841.9    0.00 
 241   12:50   0.91   87.6    19    3.8    82     7.9   841.8    0.00 
 241   13:00   0.72   88.0    15    2.1   118     5.8   841.7    0.00 
 241   13:10   0.81   88.7    18    1.5    77     3.4   841.5    0.00 
 241   13:20   0.85   87.8    23    3.7    27     5.7   841.4    0.00 
 241   13:30   0.77   87.5    16    3.4    76     7.7   841.4    0.00 
 241   13:40   0.73   88.5    14    1.4    47     4.9   841.3    0.00 
 241   13:50   0.56   89.3    14    2.0   122     5.0   841.2    0.00 
 241   14:00   0.39   87.9    17    1.0   153     2.0   841.1    0.00 
 241   14:10   0.71   88.8    17    1.6   115     3.0   840.9    0.00 
 241   14:20   0.71   90.4    15    1.0   113     2.0   840.9    0.00 
 241   14:30   0.54   90.7    14    1.0   140     3.4   840.8    0.00 
 241   14:40   0.43   87.0    21    4.5   235     7.2   840.8    0.00 
 241   14:50   0.55   85.3    27    3.4   261     6.9   840.7    0.00 
 241   15:00   0.70   89.2    15    1.0   219     2.6   840.6    0.00 
 241   15:10   0.59   89.3    20    3.2   240     5.7   840.6    0.00 
 241   15:20   0.61   88.7    17    2.2   198     4.6   840.5    0.00 
 241   15:30   0.50   88.5    21    4.1   234     7.5   840.4    0.00 
 241   15:40   0.55   84.8    26    7.2   250    14.0   840.4    0.00 
 241   15:50   0.38   82.9    24    8.9   242    14.8   840.5    0.00 
 241   16:00   0.46   84.8    22    6.7   226    12.4   840.4    0.00 
 241   16:10   0.34   84.4    22    7.3   234    13.4   840.4    0.00 
 241   16:20   0.33   82.0    26    8.4   242    12.3   840.4    0.00 
 241   16:30   0.24   81.1    26    7.5   246    11.0   840.3    0.00 
 241   16:40   0.15   79.5    29    6.1   254     8.4   840.2    0.00 
 241   16:50   0.09   77.3    33    5.8   241     7.6   840.1    0.00 
 241   17:00   0.07   74.7    41    5.0   238     7.1   840.0    0.00 
 241   17:10   0.07   76.0    31    7.0   224     8.6   839.9    0.00 
 241   17:20   0.09   74.9    36    5.6   234     7.2   839.8    0.00 
 241   17:30   0.10   74.2    38    5.6   247     8.0   839.8    0.00 
 241   17:40   0.08   74.4    39    4.8   260     7.1   839.7    0.00 
 241   17:50   0.04   73.4    39    4.8   266     5.8   839.6    0.00 
 241   18:00   0.02   73.5    38    4.2   259     6.0   839.6    0.00 
 241   18:10   0.01   70.2    47    4.9   258     6.1   839.6    0.00 
 241   18:20   0.00   68.0    51    5.0   264     6.6   839.6    0.00 
 241   18:30   0.00   66.3    53    5.8   274     7.0   839.7    0.00 
 241   18:40   0.00   65.9    50    5.9   269     7.5   839.9    0.00 
 241   18:50   0.00   65.9    46    6.6   259     7.8   840.1    0.00 
 241   19:00   0.00   65.1    48    6.3   262     8.0   840.2    0.00 
 241   19:10   0.00   64.3    50    4.8   247     7.6   840.2    0.00 
 241   19:20   0.00   62.3    56    3.4   240     4.3   840.2    0.00 
 241   19:30   0.00   62.2    56    3.2   241     3.9   840.3    0.00 
 241   19:40   0.00   61.4    57    2.2   309     3.9   840.4    0.00 
 241   19:50   0.00   64.7    43    6.1   307     8.7   840.4    0.00 
 241   20:00   0.00   66.5    39    7.3   305     9.3   840.5    0.00 
 241   20:10   0.00   65.9    41    6.4   303     8.5   840.5    0.00 
 241   20:20   0.00   63.8    46    6.3   300     8.0   840.5    0.00 
 241   20:30   0.00   62.1    51    5.9   290     8.0   840.6    0.00 
 241   20:40   0.00   61.2    53    4.4   225     7.8   840.7    0.00 
 241   20:50   0.00   62.8    44    3.3   200     5.5   840.8    0.00 
 241   21:00   0.00   65.9    37    5.8   277     7.3   840.7    0.00 
 241   21:10   0.00   64.2    44    4.6   275     7.2   840.7    0.00 
 241   21:20   0.00   62.4    51    2.9   260     4.7   840.6    0.00 
 241   21:30   0.00   59.6    58    2.0   260     4.5   840.6    0.00 
 241   21:40   0.00   60.2    56    3.6   228     7.3   840.7    0.00 
 241   21:50   0.00   62.5    48    2.9   274     5.6   840.6    0.00 
 241   22:00   0.00   68.7    32    4.3   220     7.5   840.5    0.00 
 241   22:10   0.00   71.2    28    3.6   226     7.9   840.4    0.00 
 241   22:20   0.00   68.7    33    3.8   250     7.5   840.4    0.00 
 241   22:30   0.00   67.7    34    4.2   247     9.6   840.3    0.00 
 241   22:40   0.00   66.9    34    5.3   196    13.5   840.1    0.00 
 241   22:50   0.00   70.7    27    8.6   171    12.4   840.0    0.00 
 241   23:00   0.00   71.8    26    8.5   169    13.4   839.9    0.00 
 241   23:10   0.00   72.7    24    8.6   181    19.0   839.9    0.00 
 241   23:20   0.00   71.4    26    9.7   162    17.3   839.9    0.00 
 241   23:30   0.00   71.4    25    7.8   153    14.2   840.0    0.00 
 241   23:40   0.00   71.5    25    9.3   148    15.0   840.0    0.00 
 241   23:50   0.00   69.5    29    2.9   313    10.0   840.1    0.00 
 242    0:00   0.00   69.8    26    3.4   220     9.1   840.2    0.00 
 242    0:10   0.00   71.9    24    5.8   182    14.2   840.2    0.00 
 242    0:20   0.00   68.8    29    3.4    16     8.0   840.2    0.00 
 242    0:30   0.00   70.3    26    4.8    57     9.2   840.0    0.00 
 242    0:40   0.00   70.1    26    6.6   161    16.1   840.0    0.00 
 242    0:50   0.00   69.5    28    4.8   253     9.5   839.9    0.00 
 242    1:00   0.00   66.7    33    4.7   321    10.0   839.9    0.00 
 242    1:10   0.00   69.1    27    5.6   248    12.6   839.9    0.00 
 242    1:20   0.00   73.0    23    5.7    82    11.5   839.8    0.00 
 242    1:30   0.00   70.0    30    4.6   254     9.0   839.9    0.00 
 242    1:40   0.00   65.9    36    4.9   267    10.5   840.0    0.00 
 242    1:50   0.00   68.6    32    7.7   287    17.8   839.8    0.00 
 242    2:00   0.00   69.4    29    6.7   142    16.4   839.7    0.00 
 242    2:10   0.00   69.5    29    3.9   348     8.0   839.7    0.00 
 242    2:20   0.00   68.5    33    4.2    39     7.8   839.7    0.00 
 242    2:30   0.00   68.4    34    3.7    70     8.4   839.7    0.00 
 242    2:40   0.00   66.1    36    3.4   314     9.0   839.7    0.00 
 242    2:50   0.00   68.1    34    3.6   350     7.0   839.7    0.00 
 242    3:00   0.00   67.1    36    1.8   264     3.4   839.8    0.00 
 242    3:10   0.00   66.1    41    3.0    91     6.0   839.7    0.00 
 242    3:20   0.00   64.5    45    4.0   300     6.7   839.8    0.00 
 242    3:30   0.00   66.5    39    2.3     3     5.0   839.8    0.00 
 242    3:40   0.00   66.6    36    3.1   336     7.5   839.8    0.00 
 242    3:50   0.00   68.0    32    3.5    62     6.1   839.8    0.00 
 242    4:00   0.00   67.0    36    3.4   341     5.3   839.8    0.00 
 242    4:10   0.00   68.0    32    1.7     3     5.7   839.8    0.00 
 242    4:20   0.00   68.0    34    1.7     6     6.6   839.7    0.00 
 242    4:30   0.00   66.7    34    2.0    16     5.6   839.7    0.00 
 242    4:40   0.00   66.3    42    1.4   145     4.9   839.7    0.00 
 242    4:50   0.00   63.7    50    3.4   254     5.6   839.7    0.00 
 242    5:00   0.00   63.4    48    4.5   274     7.0   839.8    0.00 
 242    5:10   0.00   63.1    49    3.3   281     6.6   839.9    0.00 
 242    5:20   0.00   65.0    42    2.9   301     5.4   839.9    0.00 
 242    5:30   0.01   66.1    39    3.0   340     6.9   839.8    0.00 
 242    5:40   0.01   63.5    50    4.9   329     7.6   839.9    0.00 
 242    5:50   0.02   63.8    48    3.2   326     4.7   840.0    0.00 
 242    6:00   0.02   64.5    49    1.7   120     4.2   840.1    0.00 
 242    6:10   0.03   62.8    52    2.4   332     5.1   840.2    0.00 
 242    6:20   0.03   64.1    51    3.6   326     5.5   840.2    0.00 
 242    6:30   0.04   63.0    54    3.4   334     8.4   840.3    0.00 
 242    6:40   0.06   64.8    45    4.6    73     9.0   840.2    0.00 
 242    6:50   0.08   66.7    41    3.6   152     6.1   840.2    0.00 
 242    7:00   0.09   64.8    54    1.9   270     5.8   840.2    0.00 
 242    7:10   0.10   64.7    54    1.3    48     2.9   840.3    0.00 
 242    7:20   0.12   66.1    46    3.4    56     6.3   840.3    0.00 
 242    7:30   0.13   68.1    48    1.4    83     5.3   840.3    0.00 
 242    7:40   0.13   67.4    50    1.2   227     3.2   840.3    0.00 
 242    7:50   0.14   68.6    52    1.1   324     3.3   840.3    0.00 
 242    8:00   0.12   68.8    49    1.8   336     5.8   840.4    0.00 
 242    8:10   0.14   69.2    43    2.8    24     8.1   840.4    0.00 
 242    8:20   0.17   69.2    46    2.3     3     3.4   840.4    0.00 
 242    8:30   0.20   70.4    50    2.9   328     4.7   840.5    0.00 
 242    8:40   0.20   70.3    53    3.2   315     4.8   840.6    0.00 
 242    8:50   0.21   70.7    49    3.1   349     4.2   840.6    0.00 
 242    9:00   0.26   72.2    48    2.4    32     3.9   840.6    0.00 
 242    9:10   0.31   72.8    49    2.4   305     5.0   840.5    0.00 
 242    9:20   0.36   73.7    48    1.1    88     2.0   840.4    0.00 
 242    9:30   0.37   74.9    48    1.2    33     2.9   840.4    0.00 
 242    9:40   0.35   75.8    37    3.2   194     5.3   840.4    0.00 
 242    9:50   0.39   76.4    38    3.1   132     5.0   840.3    0.00 

Return to Snake Valley graphs page.


Western Regional Climate Center,wrcc@dri.edu